Kalevala, Russia
Current Conditions -  °F | °C
As of 9:50 PM on Thursday 30 Oct 2014 (Local Time) from EFKS Reporting Station
Clear Clear  
Wind Chill: 24°   Ceiling: Unl
Heat Index: 30°   Visibility: 6mi
Dew Point: 28°   Wind: 6mph
Humidity: 93%   Direction: 310°NW
Pressure: 29.68"   Gusts: NA
Location:  65.2°N, 31.17°E
Report Text: EFKS 301850Z AUTO 31005KT 270V340 CAVOK M01/M02 Q1005
Loading
Personal Weather Stations






























Interactive Weather Map
Tropical Storm Tracking
New forecast layout! Learn more

10-Day Weather Forecast

Advertisements
Track Severe Weather on mobile